Laukaa, Finland
Kieli:  Suomi
CurCond
Päivitetty24/01/2020 07:49 
 

Lähistön Lentoasemien Säätiloja:

 

EFJY - Jyvaskyla (mil/C,) Finland
Etäisyys Sääasemalta: PKo 21km
Päivitetty: 24/01/2020 07:20
Selkeätä
Selkeätä
 Tuulen suunta L
Tuuli: L 15 km/h
Lämpötila: 0°C
Tuulen purevuus: -4°C
Kastepiste: -2°C
Ilmankosteus: 87%
Ilmanpaine: 994 hPa
Yhteenveto: Selkeätä
Näkyvyys: Enemmän Kuin 10 km
2020/01/24 05:20 EFJY 240520Z AUTO 28008KT CAVOK 00/M02 Q0994
EFHA - Halli (fin-Afb), Finland
Etäisyys Sääasemalta: Lo 56km
Päivitetty: 24/01/2020 07:20
Selkeätä
Selkeätä
 Tuulen suunta L
Tuuli: L 11 km/h
Lämpötila: -1°C
Tuulen purevuus: -5°C
Kastepiste: -2°C
Ilmankosteus: 93%
Ilmanpaine: 996 hPa
Yhteenveto: Selkeätä
Näkyvyys: Enemmän Kuin 10 km
2020/01/24 05:20 EFHA 240520Z AUTO 28006KT 250V320 CAVOK M01/M02 Q0996
EFMI - Mikkeli, Finland
Etäisyys Sääasemalta: IKa 105km
Päivitetty: 24/01/2020 07:20
Selkeätä
Selkeätä
 Tuulen suunta L
Tuuli: L 15 km/h
Lämpötila: -1°C
Tuulen purevuus: -6°C
Kastepiste: -2°C
Ilmankosteus: 93%
Ilmanpaine: 994 hPa
Yhteenveto: Selkeätä
Näkyvyys: Enemmän Kuin 10 km
2020/01/24 05:20 EFMI 240520Z AUTO 26008KT CAVOK M01/M02 Q0994
 
EFTP - Tampere/Pirkkala, Finland
Etäisyys Sääasemalta: Lo 135km
Päivitetty: 24/01/2020 07:20
Selkeätä
Selkeätä
 Tuulen suunta L
Tuuli: L 15 km/h
Lämpötila: 1°C
Tuulen purevuus: -3°C
Kastepiste: -1°C
Ilmankosteus: 87%
Ilmanpaine: 998 hPa
Yhteenveto: Selkeätä
Näkyvyys: Enemmän Kuin 10 km
2020/01/24 05:20 EFTP 240520Z AUTO 26008KT CAVOK 01/M01 Q0998
EFKU - Kuopio (mil/Civ), Finland
Etäisyys Sääasemalta: Ko 146km
Päivitetty: 24/01/2020 07:20
Selkeätä
Selkeätä
 Tuulen suunta L
Tuuli: L 19 km/h
Lämpötila: 1°C
Tuulen purevuus: -4°C
Kastepiste: -1°C
Ilmankosteus: 87%
Ilmanpaine: 991 hPa
Yhteenveto: Selkeätä
Näkyvyys: Enemmän Kuin 10 km
2020/01/24 05:20 EFKU 240520Z AUTO 28010KT CAVOK 01/M01 Q0991
EFSI - Seinajoki-Ilmajo, Finland
Etäisyys Sääasemalta: LLu 149km
Päivitetty: 24/01/2020 07:20
Selkeätä
Selkeätä
 Tuulen suunta L
Tuuli: L 13 km/h
Lämpötila: 1°C
Tuulen purevuus: -3°C
Kastepiste: -1°C
Ilmankosteus: 87%
Ilmanpaine: 996 hPa
Yhteenveto: Selkeätä
Näkyvyys: Enemmän Kuin 10 km
2020/01/24 05:20 EFSI 240520Z AUTO 28007KT 240V310 CAVOK 01/M01 Q0996